sensor_id;sensor_type;location;lat;lon;timestamp;P1;durP1;ratioP1;P2;durP2;ratioP2
39792;SDS011;26080;42.264;24.536;2024-03-17T00:00:40;3.63;;;2.15;;
39792;SDS011;26080;42.264;24.536;2024-03-17T00:03:06;7.07;;;2.85;;
39792;SDS011;26080;42.264;24.536;2024-03-17T00:05:35;7.15;;;3.55;;
39792;SDS011;26080;42.264;24.536;2024-03-17T00:08:01;5.78;;;3.20;;
39792;SDS011;26080;42.264;24.536;2024-03-17T00:10:29;7.65;;;3.30;;
39792;SDS011;26080;42.264;24.536;2024-03-17T00:12:59;5.57;;;2.85;;
39792;SDS011;26080;42.264;24.536;2024-03-17T00:15:25;7.80;;;3.65;;
39792;SDS011;26080;42.264;24.536;2024-03-17T00:17:51;6.32;;;3.08;;
39792;SDS011;26080;42.264;24.536;2024-03-17T00:20:16;4.82;;;3.05;;
39792;SDS011;26080;42.264;24.536;2024-03-17T00:22:47;7.05;;;3.13;;
39792;SDS011;26080;42.264;24.536;2024-03-17T00:25:18;5.15;;;2.75;;
39792;SDS011;26080;42.264;24.536;2024-03-17T00:27:43;6.35;;;3.83;;
39792;SDS011;26080;42.264;24.536;2024-03-17T00:30:10;4.93;;;2.60;;
39792;SDS011;26080;42.264;24.536;2024-03-17T00:32:40;6.68;;;3.70;;
39792;SDS011;26080;42.264;24.536;2024-03-17T00:35:07;7.80;;;3.00;;
39792;SDS011;26080;42.264;24.536;2024-03-17T00:37:34;5.80;;;3.15;;
39792;SDS011;26080;42.264;24.536;2024-03-17T00:40:02;5.85;;;2.58;;
39792;SDS011;26080;42.264;24.536;2024-03-17T00:42:29;6.43;;;2.42;;
39792;SDS011;26080;42.264;24.536;2024-03-17T00:44:55;5.93;;;3.13;;
39792;SDS011;26080;42.264;24.536;2024-03-17T00:47:21;5.60;;;3.20;;
39792;SDS011;26080;42.264;24.536;2024-03-17T00:49:46;6.30;;;2.75;;
39792;SDS011;26080;42.264;24.536;2024-03-17T00:52:15;5.38;;;3.03;;
39792;SDS011;26080;42.264;24.536;2024-03-17T00:54:40;4.07;;;2.63;;
39792;SDS011;26080;42.264;24.536;2024-03-17T00:57:06;6.90;;;3.70;;
39792;SDS011;26080;42.264;24.536;2024-03-17T00:59:32;5.50;;;3.10;;
39792;SDS011;26080;42.264;24.536;2024-03-17T01:01:58;3.80;;;1.83;;
39792;SDS011;26080;42.264;24.536;2024-03-17T01:04:23;4.55;;;2.28;;
39792;SDS011;26080;42.264;24.536;2024-03-17T01:06:48;4.32;;;2.58;;
39792;SDS011;26080;42.264;24.536;2024-03-17T01:09:14;3.65;;;2.25;;
39792;SDS011;26080;42.264;24.536;2024-03-17T01:11:39;4.53;;;2.63;;
39792;SDS011;26080;42.264;24.536;2024-03-17T01:14:05;4.50;;;2.25;;
39792;SDS011;26080;42.264;24.536;2024-03-17T01:16:32;7.10;;;2.38;;
39792;SDS011;26080;42.264;24.536;2024-03-17T01:18:58;5.70;;;2.58;;
39792;SDS011;26080;42.264;24.536;2024-03-17T01:21:23;4.45;;;3.08;;
39792;SDS011;26080;42.264;24.536;2024-03-17T01:23:49;4.85;;;2.40;;
39792;SDS011;26080;42.264;24.536;2024-03-17T01:26:14;2.97;;;1.85;;
39792;SDS011;26080;42.264;24.536;2024-03-17T01:28:40;6.28;;;2.63;;
39792;SDS011;26080;42.264;24.536;2024-03-17T01:31:06;4.30;;;2.72;;
39792;SDS011;26080;42.264;24.536;2024-03-17T01:33:31;3.88;;;1.83;;
39792;SDS011;26080;42.264;24.536;2024-03-17T01:35:57;10.13;;;3.65;;
39792;SDS011;26080;42.264;24.536;2024-03-17T01:38:22;5.00;;;3.15;;
39792;SDS011;26080;42.264;24.536;2024-03-17T01:40:48;5.65;;;2.35;;
39792;SDS011;26080;42.264;24.536;2024-03-17T01:43:13;4.30;;;2.42;;
39792;SDS011;26080;42.264;24.536;2024-03-17T01:45:38;5.70;;;2.53;;
39792;SDS011;26080;42.264;24.536;2024-03-17T01:48:04;4.35;;;2.60;;
39792;SDS011;26080;42.264;24.536;2024-03-17T01:50:37;4.18;;;2.97;;
39792;SDS011;26080;42.264;24.536;2024-03-17T01:53:03;3.75;;;2.45;;
39792;SDS011;26080;42.264;24.536;2024-03-17T01:55:30;7.70;;;4.13;;
39792;SDS011;26080;42.264;24.536;2024-03-17T01:57:57;4.85;;;2.92;;
39792;SDS011;26080;42.264;24.536;2024-03-17T02:00:23;6.43;;;3.38;;
39792;SDS011;26080;42.264;24.536;2024-03-17T02:02:48;6.13;;;2.83;;
39792;SDS011;26080;42.264;24.536;2024-03-17T02:05:14;5.30;;;2.20;;
39792;SDS011;26080;42.264;24.536;2024-03-17T02:07:39;5.88;;;2.67;;
39792;SDS011;26080;42.264;24.536;2024-03-17T02:10:05;5.95;;;3.63;;
39792;SDS011;26080;42.264;24.536;2024-03-17T02:12:33;5.28;;;3.20;;
39792;SDS011;26080;42.264;24.536;2024-03-17T02:15:00;5.28;;;3.65;;
39792;SDS011;26080;42.264;24.536;2024-03-17T02:17:26;6.75;;;3.58;;
39792;SDS011;26080;42.264;24.536;2024-03-17T02:19:53;3.97;;;3.00;;
39792;SDS011;26080;42.264;24.536;2024-03-17T02:22:19;4.07;;;2.25;;
39792;SDS011;26080;42.264;24.536;2024-03-17T02:24:45;4.40;;;2.92;;
39792;SDS011;26080;42.264;24.536;2024-03-17T02:27:11;7.78;;;3.30;;
39792;SDS011;26080;42.264;24.536;2024-03-17T02:29:36;4.35;;;3.20;;
39792;SDS011;26080;42.264;24.536;2024-03-17T02:32:02;7.18;;;3.15;;
39792;SDS011;26080;42.264;24.536;2024-03-17T02:34:37;9.48;;;4.28;;
39792;SDS011;26080;42.264;24.536;2024-03-17T02:37:04;9.82;;;5.35;;
39792;SDS011;26080;42.264;24.536;2024-03-17T02:39:31;10.43;;;4.15;;
39792;SDS011;26080;42.264;24.536;2024-03-17T02:42:01;6.65;;;4.22;;
39792;SDS011;26080;42.264;24.536;2024-03-17T02:44:27;7.18;;;4.68;;
39792;SDS011;26080;42.264;24.536;2024-03-17T02:46:53;7.82;;;4.18;;
39792;SDS011;26080;42.264;24.536;2024-03-17T02:49:18;8.73;;;4.22;;
39792;SDS011;26080;42.264;24.536;2024-03-17T02:51:44;12.43;;;4.13;;
39792;SDS011;26080;42.264;24.536;2024-03-17T02:54:09;10.13;;;4.78;;
39792;SDS011;26080;42.264;24.536;2024-03-17T02:56:35;8.73;;;4.85;;
39792;SDS011;26080;42.264;24.536;2024-03-17T02:59:00;10.85;;;4.30;;
39792;SDS011;26080;42.264;24.536;2024-03-17T03:01:26;7.45;;;5.18;;
39792;SDS011;26080;42.264;24.536;2024-03-17T03:03:51;16.88;;;5.18;;
39792;SDS011;26080;42.264;24.536;2024-03-17T03:06:16;7.90;;;3.35;;
39792;SDS011;26080;42.264;24.536;2024-03-17T03:08:44;7.93;;;4.22;;
39792;SDS011;26080;42.264;24.536;2024-03-17T03:11:13;8.98;;;6.00;;
39792;SDS011;26080;42.264;24.536;2024-03-17T03:13:39;8.57;;;4.70;;
39792;SDS011;26080;42.264;24.536;2024-03-17T03:16:09;15.10;;;6.10;;
39792;SDS011;26080;42.264;24.536;2024-03-17T03:18:36;11.98;;;4.72;;
39792;SDS011;26080;42.264;24.536;2024-03-17T03:21:03;8.50;;;4.80;;
39792;SDS011;26080;42.264;24.536;2024-03-17T03:23:29;6.95;;;5.10;;
39792;SDS011;26080;42.264;24.536;2024-03-17T03:25:55;10.40;;;5.82;;
39792;SDS011;26080;42.264;24.536;2024-03-17T03:28:24;7.30;;;4.55;;
39792;SDS011;26080;42.264;24.536;2024-03-17T03:30:51;11.00;;;5.53;;
39792;SDS011;26080;42.264;24.536;2024-03-17T03:33:20;12.65;;;5.88;;
39792;SDS011;26080;42.264;24.536;2024-03-17T03:35:45;9.90;;;5.47;;
39792;SDS011;26080;42.264;24.536;2024-03-17T03:38:12;9.32;;;4.80;;
39792;SDS011;26080;42.264;24.536;2024-03-17T03:40:39;12.90;;;6.47;;
39792;SDS011;26080;42.264;24.536;2024-03-17T03:43:05;11.73;;;6.20;;
39792;SDS011;26080;42.264;24.536;2024-03-17T03:45:30;7.60;;;6.20;;
39792;SDS011;26080;42.264;24.536;2024-03-17T03:47:55;12.43;;;6.50;;
39792;SDS011;26080;42.264;24.536;2024-03-17T03:50:21;10.07;;;5.22;;
39792;SDS011;26080;42.264;24.536;2024-03-17T03:52:48;8.13;;;4.70;;
39792;SDS011;26080;42.264;24.536;2024-03-17T03:55:15;19.40;;;7.43;;
39792;SDS011;26080;42.264;24.536;2024-03-17T03:57:42;11.23;;;6.47;;
39792;SDS011;26080;42.264;24.536;2024-03-17T04:00:11;8.35;;;4.53;;
39792;SDS011;26080;42.264;24.536;2024-03-17T04:02:46;15.02;;;7.55;;
39792;SDS011;26080;42.264;24.536;2024-03-17T04:05:12;9.35;;;5.72;;
39792;SDS011;26080;42.264;24.536;2024-03-17T04:07:38;11.55;;;6.13;;
39792;SDS011;26080;42.264;24.536;2024-03-17T04:10:04;13.32;;;6.40;;
39792;SDS011;26080;42.264;24.536;2024-03-17T04:12:30;12.25;;;6.30;;
39792;SDS011;26080;42.264;24.536;2024-03-17T04:14:59;10.15;;;6.28;;
39792;SDS011;26080;42.264;24.536;2024-03-17T04:17:25;10.55;;;5.95;;
39792;SDS011;26080;42.264;24.536;2024-03-17T04:19:52;15.43;;;8.13;;
39792;SDS011;26080;42.264;24.536;2024-03-17T04:22:18;11.70;;;5.93;;
39792;SDS011;26080;42.264;24.536;2024-03-17T04:24:45;15.07;;;7.07;;
39792;SDS011;26080;42.264;24.536;2024-03-17T04:27:12;12.30;;;7.15;;
39792;SDS011;26080;42.264;24.536;2024-03-17T04:29:38;13.80;;;7.03;;
39792;SDS011;26080;42.264;24.536;2024-03-17T04:32:05;10.95;;;6.32;;
39792;SDS011;26080;42.264;24.536;2024-03-17T04:34:31;15.02;;;7.60;;
39792;SDS011;26080;42.264;24.536;2024-03-17T04:36:57;15.68;;;7.28;;
39792;SDS011;26080;42.264;24.536;2024-03-17T04:39:23;14.27;;;7.35;;
39792;SDS011;26080;42.264;24.536;2024-03-17T04:41:49;14.45;;;7.63;;
39792;SDS011;26080;42.264;24.536;2024-03-17T04:44:15;19.00;;;8.57;;
39792;SDS011;26080;42.264;24.536;2024-03-17T04:46:41;12.00;;;7.00;;
39792;SDS011;26080;42.264;24.536;2024-03-17T04:49:06;19.58;;;7.70;;
39792;SDS011;26080;42.264;24.536;2024-03-17T04:51:33;22.65;;;8.57;;
39792;SDS011;26080;42.264;24.536;2024-03-17T04:53:59;14.30;;;7.15;;
39792;SDS011;26080;42.264;24.536;2024-03-17T04:56:24;20.65;;;9.30;;
39792;SDS011;26080;42.264;24.536;2024-03-17T04:58:50;14.10;;;8.07;;
39792;SDS011;26080;42.264;24.536;2024-03-17T05:01:16;15.57;;;8.25;;
39792;SDS011;26080;42.264;24.536;2024-03-17T05:03:41;19.25;;;9.93;;
39792;SDS011;26080;42.264;24.536;2024-03-17T05:06:07;20.27;;;13.18;;
39792;SDS011;26080;42.264;24.536;2024-03-17T05:08:33;19.27;;;10.45;;
39792;SDS011;26080;42.264;24.536;2024-03-17T05:11:03;22.08;;;10.77;;
39792;SDS011;26080;42.264;24.536;2024-03-17T05:13:32;22.17;;;9.85;;
39792;SDS011;26080;42.264;24.536;2024-03-17T05:15:59;17.40;;;10.90;;
39792;SDS011;26080;42.264;24.536;2024-03-17T05:18:26;14.85;;;9.82;;
39792;SDS011;26080;42.264;24.536;2024-03-17T05:23:28;12.93;;;7.80;;
39792;SDS011;26080;42.264;24.536;2024-03-17T05:25:55;11.02;;;6.35;;
39792;SDS011;26080;42.264;24.536;2024-03-17T05:28:22;11.10;;;5.95;;
39792;SDS011;26080;42.264;24.536;2024-03-17T05:30:48;10.05;;;7.03;;
39792;SDS011;26080;42.264;24.536;2024-03-17T05:33:15;15.80;;;7.38;;
39792;SDS011;26080;42.264;24.536;2024-03-17T05:38:17;14.75;;;7.55;;
39792;SDS011;26080;42.264;24.536;2024-03-17T05:43:22;15.35;;;7.65;;
39792;SDS011;26080;42.264;24.536;2024-03-17T05:45:56;11.02;;;5.40;;
39792;SDS011;26080;42.264;24.536;2024-03-17T05:48:23;11.18;;;6.57;;
39792;SDS011;26080;42.264;24.536;2024-03-17T05:50:51;11.95;;;5.57;;
39792;SDS011;26080;42.264;24.536;2024-03-17T05:53:17;11.48;;;6.82;;
39792;SDS011;26080;42.264;24.536;2024-03-17T05:55:46;11.95;;;6.05;;
39792;SDS011;26080;42.264;24.536;2024-03-17T05:58:11;14.00;;;6.35;;
39792;SDS011;26080;42.264;24.536;2024-03-17T06:00:37;14.98;;;8.52;;
39792;SDS011;26080;42.264;24.536;2024-03-17T06:03:04;12.55;;;8.25;;
39792;SDS011;26080;42.264;24.536;2024-03-17T06:05:38;15.80;;;8.75;;
39792;SDS011;26080;42.264;24.536;2024-03-17T06:08:08;16.05;;;8.35;;
39792;SDS011;26080;42.264;24.536;2024-03-17T06:10:34;13.73;;;7.28;;
39792;SDS011;26080;42.264;24.536;2024-03-17T06:13:00;13.35;;;7.22;;
39792;SDS011;26080;42.264;24.536;2024-03-17T06:15:26;17.77;;;9.25;;
39792;SDS011;26080;42.264;24.536;2024-03-17T06:17:52;17.52;;;8.35;;
39792;SDS011;26080;42.264;24.536;2024-03-17T06:20:22;21.38;;;9.68;;
39792;SDS011;26080;42.264;24.536;2024-03-17T06:22:49;19.38;;;8.55;;
39792;SDS011;26080;42.264;24.536;2024-03-17T06:25:15;28.10;;;10.13;;
39792;SDS011;26080;42.264;24.536;2024-03-17T06:27:40;33.22;;;10.73;;
39792;SDS011;26080;42.264;24.536;2024-03-17T06:30:09;15.88;;;9.30;;
39792;SDS011;26080;42.264;24.536;2024-03-17T06:32:39;20.83;;;8.55;;
39792;SDS011;26080;42.264;24.536;2024-03-17T06:35:09;13.05;;;7.30;;
39792;SDS011;26080;42.264;24.536;2024-03-17T06:37:35;20.15;;;10.82;;
39792;SDS011;26080;42.264;24.536;2024-03-17T06:40:01;16.05;;;6.95;;
39792;SDS011;26080;42.264;24.536;2024-03-17T06:42:28;12.32;;;5.25;;
39792;SDS011;26080;42.264;24.536;2024-03-17T06:44:55;13.95;;;6.57;;
39792;SDS011;26080;42.264;24.536;2024-03-17T06:47:20;12.73;;;6.70;;
39792;SDS011;26080;42.264;24.536;2024-03-17T06:49:45;11.85;;;5.97;;
39792;SDS011;26080;42.264;24.536;2024-03-17T06:52:11;14.90;;;7.38;;
39792;SDS011;26080;42.264;24.536;2024-03-17T06:54:36;12.57;;;5.47;;
39792;SDS011;26080;42.264;24.536;2024-03-17T06:57:02;12.85;;;6.30;;
39792;SDS011;26080;42.264;24.536;2024-03-17T06:59:28;15.77;;;6.85;;
39792;SDS011;26080;42.264;24.536;2024-03-17T07:01:53;11.55;;;4.63;;
39792;SDS011;26080;42.264;24.536;2024-03-17T07:04:18;13.45;;;6.13;;
39792;SDS011;26080;42.264;24.536;2024-03-17T07:06:46;12.15;;;8.02;;
39792;SDS011;26080;42.264;24.536;2024-03-17T07:09:11;13.43;;;6.95;;
39792;SDS011;26080;42.264;24.536;2024-03-17T07:11:37;11.98;;;6.85;;
39792;SDS011;26080;42.264;24.536;2024-03-17T07:14:02;18.48;;;7.38;;
39792;SDS011;26080;42.264;24.536;2024-03-17T07:16:28;15.68;;;6.47;;
39792;SDS011;26080;42.264;24.536;2024-03-17T07:18:53;15.82;;;7.63;;
39792;SDS011;26080;42.264;24.536;2024-03-17T07:21:21;13.60;;;7.07;;
39792;SDS011;26080;42.264;24.536;2024-03-17T07:23:47;13.93;;;6.95;;
39792;SDS011;26080;42.264;24.536;2024-03-17T07:26:12;14.50;;;6.57;;
39792;SDS011;26080;42.264;24.536;2024-03-17T07:28:39;12.18;;;7.32;;
39792;SDS011;26080;42.264;24.536;2024-03-17T07:31:09;11.52;;;6.25;;
39792;SDS011;26080;42.264;24.536;2024-03-17T07:33:35;14.90;;;7.07;;
39792;SDS011;26080;42.264;24.536;2024-03-17T07:36:00;9.80;;;5.85;;
39792;SDS011;26080;42.264;24.536;2024-03-17T07:38:27;43.95;;;16.13;;
39792;SDS011;26080;42.264;24.536;2024-03-17T07:43:33;18.30;;;8.73;;
39792;SDS011;26080;42.264;24.536;2024-03-17T07:46:09;15.32;;;6.53;;
39792;SDS011;26080;42.264;24.536;2024-03-17T07:48:39;13.20;;;7.10;;
39792;SDS011;26080;42.264;24.536;2024-03-17T07:53:33;16.05;;;8.45;;
39792;SDS011;26080;42.264;24.536;2024-03-17T07:56:00;10.73;;;6.28;;
39792;SDS011;26080;42.264;24.536;2024-03-17T07:58:30;12.10;;;6.63;;
39792;SDS011;26080;42.264;24.536;2024-03-17T08:00:58;21.17;;;8.40;;
39792;SDS011;26080;42.264;24.536;2024-03-17T08:03:25;15.20;;;8.55;;
39792;SDS011;26080;42.264;24.536;2024-03-17T08:05:51;15.10;;;7.28;;
39792;SDS011;26080;42.264;24.536;2024-03-17T08:08:17;20.08;;;11.13;;
39792;SDS011;26080;42.264;24.536;2024-03-17T08:10:43;14.18;;;7.13;;
39792;SDS011;26080;42.264;24.536;2024-03-17T08:13:09;15.95;;;8.45;;
39792;SDS011;26080;42.264;24.536;2024-03-17T08:15:34;16.25;;;7.35;;
39792;SDS011;26080;42.264;24.536;2024-03-17T08:18:00;18.20;;;8.63;;
39792;SDS011;26080;42.264;24.536;2024-03-17T08:20:26;12.38;;;7.68;;
39792;SDS011;26080;42.264;24.536;2024-03-17T08:22:51;14.00;;;6.70;;
39792;SDS011;26080;42.264;24.536;2024-03-17T08:25:17;16.23;;;8.65;;
39792;SDS011;26080;42.264;24.536;2024-03-17T08:27:42;16.05;;;7.78;;
39792;SDS011;26080;42.264;24.536;2024-03-17T08:30:10;9.65;;;5.82;;
39792;SDS011;26080;42.264;24.536;2024-03-17T08:32:36;8.55;;;5.93;;
39792;SDS011;26080;42.264;24.536;2024-03-17T08:35:02;11.07;;;6.38;;
39792;SDS011;26080;42.264;24.536;2024-03-17T08:37:27;15.27;;;7.45;;
39792;SDS011;26080;42.264;24.536;2024-03-17T08:39:53;28.00;;;7.82;;
39792;SDS011;26080;42.264;24.536;2024-03-17T08:42:18;20.58;;;8.13;;
39792;SDS011;26080;42.264;24.536;2024-03-17T08:44:46;13.15;;;6.78;;
39792;SDS011;26080;42.264;24.536;2024-03-17T08:47:12;11.30;;;6.72;;
39792;SDS011;26080;42.264;24.536;2024-03-17T08:49:37;12.07;;;7.25;;
39792;SDS011;26080;42.264;24.536;2024-03-17T08:52:03;10.82;;;6.10;;
39792;SDS011;26080;42.264;24.536;2024-03-17T08:54:28;13.93;;;7.43;;
39792;SDS011;26080;42.264;24.536;2024-03-17T08:56:54;25.55;;;10.10;;
39792;SDS011;26080;42.264;24.536;2024-03-17T08:59:19;15.07;;;7.68;;
39792;SDS011;26080;42.264;24.536;2024-03-17T09:01:44;9.82;;;5.05;;
39792;SDS011;26080;42.264;24.536;2024-03-17T09:04:10;12.45;;;6.00;;
39792;SDS011;26080;42.264;24.536;2024-03-17T09:06:36;15.35;;;7.70;;
39792;SDS011;26080;42.264;24.536;2024-03-17T09:09:02;14.70;;;6.65;;
39792;SDS011;26080;42.264;24.536;2024-03-17T09:11:28;12.98;;;7.05;;
39792;SDS011;26080;42.264;24.536;2024-03-17T09:13:54;14.45;;;5.50;;
39792;SDS011;26080;42.264;24.536;2024-03-17T09:16:20;12.25;;;6.53;;
39792;SDS011;26080;42.264;24.536;2024-03-17T09:18:47;31.02;;;20.80;;
39792;SDS011;26080;42.264;24.536;2024-03-17T09:21:14;16.02;;;8.32;;
39792;SDS011;26080;42.264;24.536;2024-03-17T09:23:41;25.17;;;10.98;;
39792;SDS011;26080;42.264;24.536;2024-03-17T09:26:07;14.15;;;7.55;;
39792;SDS011;26080;42.264;24.536;2024-03-17T09:28:40;14.55;;;7.63;;
39792;SDS011;26080;42.264;24.536;2024-03-17T09:31:05;22.05;;;9.00;;
39792;SDS011;26080;42.264;24.536;2024-03-17T09:33:32;15.05;;;9.65;;
39792;SDS011;26080;42.264;24.536;2024-03-17T09:38:25;11.35;;;6.22;;
39792;SDS011;26080;42.264;24.536;2024-03-17T09:40:52;9.82;;;4.03;;
39792;SDS011;26080;42.264;24.536;2024-03-17T09:43:22;21.75;;;8.43;;
39792;SDS011;26080;42.264;24.536;2024-03-17T09:45:56;13.35;;;6.72;;
39792;SDS011;26080;42.264;24.536;2024-03-17T09:48:26;11.85;;;6.82;;
39792;SDS011;26080;42.264;24.536;2024-03-17T09:53:23;8.10;;;4.80;;
39792;SDS011;26080;42.264;24.536;2024-03-17T09:58:35;9.90;;;4.32;;
39792;SDS011;26080;42.264;24.536;2024-03-17T10:01:01;8.52;;;5.18;;
39792;SDS011;26080;42.264;24.536;2024-03-17T10:06:26;11.40;;;4.78;;
39792;SDS011;26080;42.264;24.536;2024-03-17T10:08:55;10.48;;;4.85;;
39792;SDS011;26080;42.264;24.536;2024-03-17T10:11:23;12.02;;;5.40;;
39792;SDS011;26080;42.264;24.536;2024-03-17T10:14:02;7.22;;;3.97;;
39792;SDS011;26080;42.264;24.536;2024-03-17T10:16:29;7.30;;;4.28;;
39792;SDS011;26080;42.264;24.536;2024-03-17T10:22:04;7.65;;;4.22;;
39792;SDS011;26080;42.264;24.536;2024-03-17T10:24:30;6.40;;;3.08;;
39792;SDS011;26080;42.264;24.536;2024-03-17T10:26:56;5.88;;;3.22;;
39792;SDS011;26080;42.264;24.536;2024-03-17T10:31:53;6.13;;;2.90;;
39792;SDS011;26080;42.264;24.536;2024-03-17T10:34:20;6.13;;;3.20;;
39792;SDS011;26080;42.264;24.536;2024-03-17T10:36:49;6.25;;;2.85;;
39792;SDS011;26080;42.264;24.536;2024-03-17T10:39:23;8.05;;;4.45;;
39792;SDS011;26080;42.264;24.536;2024-03-17T10:41:55;12.90;;;4.28;;
39792;SDS011;26080;42.264;24.536;2024-03-17T10:44:31;8.82;;;4.63;;
39792;SDS011;26080;42.264;24.536;2024-03-17T10:46:59;9.18;;;4.53;;
39792;SDS011;26080;42.264;24.536;2024-03-17T10:49:31;9.95;;;4.30;;
39792;SDS011;26080;42.264;24.536;2024-03-17T10:52:09;7.90;;;4.18;;
39792;SDS011;26080;42.264;24.536;2024-03-17T10:54:43;7.95;;;4.20;;
39792;SDS011;26080;42.264;24.536;2024-03-17T11:00:07;6.43;;;3.22;;
39792;SDS011;26080;42.264;24.536;2024-03-17T11:02:33;11.27;;;4.40;;
39792;SDS011;26080;42.264;24.536;2024-03-17T11:05:20;8.38;;;4.15;;
39792;SDS011;26080;42.264;24.536;2024-03-17T11:07:49;9.13;;;4.43;;
39792;SDS011;26080;42.264;24.536;2024-03-17T11:10:26;7.00;;;4.47;;
39792;SDS011;26080;42.264;24.536;2024-03-17T11:12:54;6.13;;;3.85;;
39792;SDS011;26080;42.264;24.536;2024-03-17T11:17:54;9.65;;;4.88;;
39792;SDS011;26080;42.264;24.536;2024-03-17T11:20:42;5.63;;;3.58;;
39792;SDS011;26080;42.264;24.536;2024-03-17T11:23:08;6.32;;;3.42;;
39792;SDS011;26080;42.264;24.536;2024-03-17T11:25:37;5.85;;;2.95;;
39792;SDS011;26080;42.264;24.536;2024-03-17T11:28:04;12.10;;;4.00;;
39792;SDS011;26080;42.264;24.536;2024-03-17T11:46:45;5.30;;;3.08;;
39792;SDS011;26080;42.264;24.536;2024-03-17T11:52:09;5.57;;;2.45;;
39792;SDS011;26080;42.264;24.536;2024-03-17T11:54:45;6.15;;;3.20;;
39792;SDS011;26080;42.264;24.536;2024-03-17T11:57:20;9.63;;;2.40;;
39792;SDS011;26080;42.264;24.536;2024-03-17T11:59:50;6.03;;;2.63;;
39792;SDS011;26080;42.264;24.536;2024-03-17T12:04:59;7.80;;;3.22;;
39792;SDS011;26080;42.264;24.536;2024-03-17T12:07:26;5.60;;;3.15;;
39792;SDS011;26080;42.264;24.536;2024-03-17T12:09:53;8.73;;;3.80;;
39792;SDS011;26080;42.264;24.536;2024-03-17T12:12:27;10.20;;;3.63;;
39792;SDS011;26080;42.264;24.536;2024-03-17T12:15:00;6.15;;;3.28;;
39792;SDS011;26080;42.264;24.536;2024-03-17T12:17:26;5.63;;;2.92;;
39792;SDS011;26080;42.264;24.536;2024-03-17T12:19:51;5.43;;;2.90;;
39792;SDS011;26080;42.264;24.536;2024-03-17T12:22:18;8.45;;;3.55;;
39792;SDS011;26080;42.264;24.536;2024-03-17T12:24:47;10.05;;;3.30;;
39792;SDS011;26080;42.264;24.536;2024-03-17T12:27:23;5.45;;;2.97;;
39792;SDS011;26080;42.264;24.536;2024-03-17T12:29:50;4.32;;;2.10;;
39792;SDS011;26080;42.264;24.536;2024-03-17T12:32:18;4.90;;;2.55;;
39792;SDS011;26080;42.264;24.536;2024-03-17T12:34:48;5.13;;;2.63;;
39792;SDS011;26080;42.264;24.536;2024-03-17T12:37:16;6.55;;;2.50;;
39792;SDS011;26080;42.264;24.536;2024-03-17T12:39:43;4.78;;;2.28;;
39792;SDS011;26080;42.264;24.536;2024-03-17T12:44:36;5.18;;;2.03;;
39792;SDS011;26080;42.264;24.536;2024-03-17T12:47:07;4.90;;;2.80;;
39792;SDS011;26080;42.264;24.536;2024-03-17T12:49:33;5.53;;;2.53;;
39792;SDS011;26080;42.264;24.536;2024-03-17T12:51:59;5.63;;;2.67;;
39792;SDS011;26080;42.264;24.536;2024-03-17T12:54:28;5.20;;;2.20;;
39792;SDS011;26080;42.264;24.536;2024-03-17T12:57:04;3.88;;;2.08;;
39792;SDS011;26080;42.264;24.536;2024-03-17T12:59:51;4.25;;;2.10;;
39792;SDS011;26080;42.264;24.536;2024-03-17T13:02:42;5.97;;;3.00;;
39792;SDS011;26080;42.264;24.536;2024-03-17T13:05:14;4.47;;;2.58;;
39792;SDS011;26080;42.264;24.536;2024-03-17T13:07:45;8.18;;;3.58;;
39792;SDS011;26080;42.264;24.536;2024-03-17T13:10:12;9.43;;;2.85;;
39792;SDS011;26080;42.264;24.536;2024-03-17T13:12:39;4.30;;;1.75;;
39792;SDS011;26080;42.264;24.536;2024-03-17T13:15:04;4.68;;;2.38;;
39792;SDS011;26080;42.264;24.536;2024-03-17T13:17:30;3.85;;;2.00;;
39792;SDS011;26080;42.264;24.536;2024-03-17T13:19:58;7.90;;;3.78;;
39792;SDS011;26080;42.264;24.536;2024-03-17T13:22:25;14.40;;;3.08;;
39792;SDS011;26080;42.264;24.536;2024-03-17T13:24:51;4.60;;;2.08;;
39792;SDS011;26080;42.264;24.536;2024-03-17T13:27:16;5.50;;;2.25;;
39792;SDS011;26080;42.264;24.536;2024-03-17T13:29:42;5.30;;;2.70;;
39792;SDS011;26080;42.264;24.536;2024-03-17T13:32:11;5.95;;;2.25;;
39792;SDS011;26080;42.264;24.536;2024-03-17T13:34:37;3.60;;;2.13;;
39792;SDS011;26080;42.264;24.536;2024-03-17T13:37:02;8.50;;;3.42;;
39792;SDS011;26080;42.264;24.536;2024-03-17T13:39:32;6.22;;;3.10;;
39792;SDS011;26080;42.264;24.536;2024-03-17T13:41:58;4.78;;;2.65;;
39792;SDS011;26080;42.264;24.536;2024-03-17T13:44:31;7.72;;;2.55;;
39792;SDS011;26080;42.264;24.536;2024-03-17T13:46:57;6.00;;;2.83;;
39792;SDS011;26080;42.264;24.536;2024-03-17T13:49:23;5.13;;;2.22;;
39792;SDS011;26080;42.264;24.536;2024-03-17T13:51:49;6.38;;;2.63;;
39792;SDS011;26080;42.264;24.536;2024-03-17T13:54:15;4.43;;;2.63;;
39792;SDS011;26080;42.264;24.536;2024-03-17T13:56:40;3.47;;;2.30;;
39792;SDS011;26080;42.264;24.536;2024-03-17T13:59:06;4.75;;;2.42;;
39792;SDS011;26080;42.264;24.536;2024-03-17T14:01:31;4.25;;;2.17;;
39792;SDS011;26080;42.264;24.536;2024-03-17T14:03:58;4.10;;;2.05;;
39792;SDS011;26080;42.264;24.536;2024-03-17T14:06:23;3.47;;;2.10;;
39792;SDS011;26080;42.264;24.536;2024-03-17T14:08:49;5.63;;;2.83;;
39792;SDS011;26080;42.264;24.536;2024-03-17T14:11:14;4.35;;;2.42;;
39792;SDS011;26080;42.264;24.536;2024-03-17T14:13:40;8.23;;;2.00;;
39792;SDS011;26080;42.264;24.536;2024-03-17T14:16:06;4.47;;;1.88;;
39792;SDS011;26080;42.264;24.536;2024-03-17T14:18:31;3.65;;;1.77;;
39792;SDS011;26080;42.264;24.536;2024-03-17T14:21:00;3.30;;;1.85;;
39792;SDS011;26080;42.264;24.536;2024-03-17T14:23:26;4.40;;;2.40;;
39792;SDS011;26080;42.264;24.536;2024-03-17T14:25:53;7.10;;;2.55;;
39792;SDS011;26080;42.264;24.536;2024-03-17T14:28:19;2.95;;;1.80;;
39792;SDS011;26080;42.264;24.536;2024-03-17T14:30:44;6.47;;;2.80;;
39792;SDS011;26080;42.264;24.536;2024-03-17T14:33:10;7.30;;;2.33;;
39792;SDS011;26080;42.264;24.536;2024-03-17T14:35:35;4.00;;;1.75;;
39792;SDS011;26080;42.264;24.536;2024-03-17T14:38:02;3.70;;;1.92;;
39792;SDS011;26080;42.264;24.536;2024-03-17T14:40:29;2.58;;;1.33;;
39792;SDS011;26080;42.264;24.536;2024-03-17T14:42:55;3.47;;;1.55;;
39792;SDS011;26080;42.264;24.536;2024-03-17T14:45:21;5.53;;;2.13;;
39792;SDS011;26080;42.264;24.536;2024-03-17T14:47:50;4.78;;;1.77;;
39792;SDS011;26080;42.264;24.536;2024-03-17T14:50:17;2.90;;;1.75;;
39792;SDS011;26080;42.264;24.536;2024-03-17T14:52:42;10.57;;;2.38;;
39792;SDS011;26080;42.264;24.536;2024-03-17T14:55:09;3.90;;;2.00;;
39792;SDS011;26080;42.264;24.536;2024-03-17T14:57:35;5.03;;;1.88;;
39792;SDS011;26080;42.264;24.536;2024-03-17T15:00:03;3.65;;;1.80;;
39792;SDS011;26080;42.264;24.536;2024-03-17T15:02:41;3.42;;;1.60;;
39792;SDS011;26080;42.264;24.536;2024-03-17T15:05:10;3.47;;;1.95;;
39792;SDS011;26080;42.264;24.536;2024-03-17T15:07:36;3.35;;;1.65;;
39792;SDS011;26080;42.264;24.536;2024-03-17T15:10:02;3.92;;;1.80;;
39792;SDS011;26080;42.264;24.536;2024-03-17T15:12:28;3.78;;;2.28;;
39792;SDS011;26080;42.264;24.536;2024-03-17T15:14:54;6.03;;;1.80;;
39792;SDS011;26080;42.264;24.536;2024-03-17T15:17:20;8.45;;;2.97;;
39792;SDS011;26080;42.264;24.536;2024-03-17T15:19:48;5.30;;;2.42;;
39792;SDS011;26080;42.264;24.536;2024-03-17T15:22:14;3.10;;;1.50;;
39792;SDS011;26080;42.264;24.536;2024-03-17T15:24:39;3.88;;;2.42;;
39792;SDS011;26080;42.264;24.536;2024-03-17T15:27:05;3.08;;;1.77;;